createdAt,value
2018-03-25T00:00:09.132Z,57.60
2018-03-25T00:01:10.159Z,57.60
2018-03-25T00:02:12.009Z,57.70
2018-03-25T00:03:13.095Z,57.70
2018-03-25T00:04:14.203Z,57.80
2018-03-25T00:05:15.296Z,57.90
2018-03-25T00:06:16.382Z,57.90
2018-03-25T00:07:17.494Z,58.50
2018-03-25T00:08:18.592Z,58.00
2018-03-25T00:09:19.669Z,58.10
2018-03-25T00:10:20.764Z,58.00
2018-03-25T00:11:21.884Z,58.10
2018-03-25T00:12:23.730Z,58.10
2018-03-25T00:13:24.849Z,58.10
2018-03-25T00:14:25.936Z,58.00
2018-03-25T00:15:27.031Z,58.20
2018-03-25T00:16:28.133Z,58.40
2018-03-25T00:17:29.219Z,58.50
2018-03-25T00:18:31.042Z,58.60
2018-03-25T00:19:32.912Z,58.70
2018-03-25T00:20:34.009Z,58.70
2018-03-25T00:21:35.104Z,58.70
2018-03-25T00:22:36.232Z,58.50
2018-03-25T00:23:37.321Z,58.60
2018-03-25T00:24:38.397Z,58.70
2018-03-25T00:25:39.491Z,58.70
2018-03-25T00:26:40.594Z,58.80
2018-03-25T00:27:41.727Z,58.90
2018-03-25T00:28:42.828Z,58.80
2018-03-25T00:29:43.936Z,59.10
2018-03-25T00:30:45.020Z,59.10
2018-03-25T00:31:46.128Z,59.20
2018-03-25T00:32:47.204Z,59.20
2018-03-25T00:33:48.291Z,59.30
2018-03-25T00:34:49.388Z,59.30
2018-03-25T00:35:50.765Z,59.50
2018-03-25T00:36:51.848Z,59.40
2018-03-25T00:37:52.936Z,59.50
2018-03-25T00:38:54.005Z,59.40
2018-03-25T00:39:55.164Z,59.40
2018-03-25T00:40:56.202Z,59.40
2018-03-25T00:41:58.022Z,59.40
2018-03-25T00:42:59.128Z,59.30
2018-03-25T00:44:00.221Z,59.40
2018-03-25T00:45:02.046Z,59.50
2018-03-25T00:46:03.161Z,59.50
2018-03-25T00:47:04.256Z,59.50
2018-03-25T00:48:05.344Z,59.50
2018-03-25T00:49:06.431Z,59.50
2018-03-25T00:50:07.508Z,60.30
2018-03-25T00:51:08.579Z,59.70
2018-03-25T00:52:10.411Z,59.70
2018-03-25T00:53:11.484Z,59.70
2018-03-25T00:54:12.571Z,60.00
2018-03-25T00:55:13.663Z,59.50
2018-03-25T00:56:14.765Z,59.70
2018-03-25T00:57:15.859Z,59.60
2018-03-25T00:58:17.697Z,60.30
2018-03-25T00:59:18.771Z,59.70
2018-03-25T01:00:20.586Z,59.40
2018-03-25T01:01:21.676Z,59.40
2018-03-25T01:02:22.771Z,59.30
2018-03-25T01:03:24.606Z,59.90
2018-03-25T01:04:26.425Z,60.00
2018-03-25T01:05:27.562Z,60.00
2018-03-25T01:06:28.663Z,60.00
2018-03-25T01:07:29.767Z,59.80
2018-03-25T01:08:30.870Z,60.00
2018-03-25T01:09:31.951Z,60.80
2018-03-25T01:10:33.042Z,59.90
2018-03-25T01:11:34.165Z,60.00
2018-03-25T01:12:35.256Z,60.00
2018-03-25T01:13:36.366Z,60.70
2018-03-25T01:14:38.188Z,60.00
2018-03-25T01:15:51.600Z,60.00
2018-03-25T01:16:52.667Z,60.00
2018-03-25T01:17:53.752Z,60.00
2018-03-25T01:18:54.848Z,60.00
2018-03-25T01:19:55.960Z,60.00
2018-03-25T01:20:57.802Z,60.10
2018-03-25T01:21:58.904Z,60.50
2018-03-25T01:23:00.012Z,60.10
2018-03-25T01:24:01.106Z,59.90
2018-03-25T01:25:02.216Z,60.00
2018-03-25T01:26:03.317Z,60.00
2018-03-25T01:27:04.414Z,59.60
2018-03-25T01:28:06.252Z,59.50
2018-03-25T01:29:07.348Z,59.40
2018-03-25T01:30:08.433Z,59.40
2018-03-25T01:31:09.541Z,59.40
2018-03-25T01:32:11.385Z,60.00
2018-03-25T01:33:12.477Z,60.00
2018-03-25T01:34:13.559Z,60.00
2018-03-25T01:35:14.654Z,60.00
2018-03-25T01:36:16.483Z,59.90
2018-03-25T01:37:17.612Z,59.90
2018-03-25T01:38:18.727Z,60.00
2018-03-25T01:39:19.817Z,59.90
2018-03-25T01:40:20.904Z,59.90
2018-03-25T01:41:22.094Z,59.90
2018-03-25T01:42:23.183Z,60.00
2018-03-25T01:43:25.009Z,60.00
2018-03-25T01:44:26.839Z,60.90
2018-03-25T01:46:35.826Z,60.00
2018-03-25T01:47:36.913Z,60.70
2018-03-25T01:48:38.750Z,59.90
2018-03-25T01:49:40.653Z,59.90
2018-03-25T01:50:41.755Z,59.80
2018-03-25T01:51:42.837Z,60.20
2018-03-25T01:52:43.932Z,60.10
2018-03-25T01:53:45.039Z,59.90
2018-03-25T01:54:46.220Z,59.80
2018-03-25T01:55:47.365Z,59.90
2018-03-25T01:56:49.195Z,59.80
2018-03-25T01:57:50.268Z,59.80
2018-03-25T01:58:51.358Z,59.80
2018-03-25T01:59:52.436Z,59.80
2018-03-25T02:00:53.521Z,60.50
2018-03-25T02:01:54.602Z,59.80
2018-03-25T02:02:55.695Z,59.80
2018-03-25T02:03:56.817Z,59.70
2018-03-25T02:04:57.892Z,59.80
2018-03-25T02:05:58.991Z,59.80
2018-03-25T02:07:00.083Z,59.80
2018-03-25T02:08:01.919Z,59.80
2018-03-25T02:09:03.043Z,59.80
2018-03-25T02:10:04.152Z,59.80
2018-03-25T02:11:05.240Z,59.80
2018-03-25T02:12:07.072Z,59.90
2018-03-25T02:13:08.908Z,59.80
2018-03-25T02:14:10.019Z,59.80
2018-03-25T02:15:11.123Z,59.80
2018-03-25T02:16:12.201Z,59.80
2018-03-25T02:17:13.291Z,60.10
2018-03-25T02:18:14.375Z,60.00
2018-03-25T02:19:15.502Z,60.10
2018-03-25T02:20:16.587Z,60.20
2018-03-25T02:21:17.696Z,60.40
2018-03-25T02:22:18.798Z,60.40
2018-03-25T02:23:19.912Z,60.30
2018-03-25T02:24:21.028Z,60.30
2018-03-25T02:25:22.111Z,60.30
2018-03-25T02:26:23.196Z,60.40
2018-03-25T02:27:24.285Z,61.00
2018-03-25T02:28:26.110Z,60.30
2018-03-25T02:29:27.203Z,60.20
2018-03-25T02:30:28.285Z,60.50
2018-03-25T02:31:29.365Z,60.70
2018-03-25T02:32:30.479Z,60.70
2018-03-25T02:33:31.571Z,60.70
2018-03-25T02:34:32.682Z,60.70
2018-03-25T02:35:33.765Z,60.60
2018-03-25T02:36:35.593Z,61.20
2018-03-25T02:37:36.676Z,61.10
2018-03-25T02:38:37.769Z,61.10
2018-03-25T02:39:39.633Z,61.30
2018-03-25T02:40:41.466Z,61.50
2018-03-25T02:41:42.544Z,61.40
2018-03-25T02:42:43.631Z,61.20
2018-03-25T02:43:44.735Z,61.10
2018-03-25T02:44:45.832Z,61.20
2018-03-25T02:45:46.923Z,61.20
2018-03-25T02:46:48.015Z,61.30
2018-03-25T02:47:49.095Z,61.70
2018-03-25T02:48:50.187Z,61.50
2018-03-25T02:49:51.272Z,61.40
2018-03-25T02:50:53.117Z,61.70
2018-03-25T02:51:54.209Z,61.60
2018-03-25T02:52:55.316Z,61.40
2018-03-25T02:53:56.420Z,61.40
2018-03-25T02:54:58.285Z,61.20
2018-03-25T02:55:59.371Z,61.20
2018-03-25T02:57:00.493Z,61.10
2018-03-25T02:58:01.591Z,60.90
2018-03-25T02:59:02.680Z,61.00
2018-03-25T03:00:03.796Z,60.90
2018-03-25T03:01:04.909Z,60.90
2018-03-25T03:02:06.029Z,60.90
2018-03-25T03:03:07.136Z,60.90
2018-03-25T03:04:08.235Z,60.90
2018-03-25T03:05:09.331Z,61.10
2018-03-25T03:06:10.410Z,61.10
2018-03-25T03:07:11.529Z,61.20
2018-03-25T03:08:12.625Z,61.20
2018-03-25T03:09:13.735Z,61.50
2018-03-25T03:10:15.573Z,61.80
2018-03-25T03:11:16.667Z,61.90
2018-03-25T03:12:17.763Z,61.90
2018-03-25T03:13:18.832Z,61.90
2018-03-25T03:14:19.936Z,61.90
2018-03-25T03:15:21.041Z,61.80
2018-03-25T03:16:22.132Z,61.70
2018-03-25T03:17:23.965Z,61.60
2018-03-25T03:18:25.056Z,62.10
2018-03-25T03:19:26.145Z,61.60
2018-03-25T03:20:27.272Z,61.60
2018-03-25T03:21:28.355Z,61.60
2018-03-25T03:22:29.460Z,61.60
2018-03-25T03:23:30.576Z,61.70
2018-03-25T03:24:31.678Z,61.60
2018-03-25T03:25:32.771Z,61.70
2018-03-25T03:26:34.610Z,61.90
2018-03-25T03:27:35.715Z,61.80
2018-03-25T03:28:36.800Z,61.90
2018-03-25T03:29:38.635Z,62.20
2018-03-25T03:30:39.735Z,62.10
2018-03-25T03:31:40.832Z,62.10
2018-03-25T03:32:41.929Z,62.00
2018-03-25T03:33:43.052Z,62.00
2018-03-25T03:34:44.141Z,62.10
2018-03-25T03:35:45.239Z,62.10
2018-03-25T03:36:46.327Z,62.20
2018-03-25T03:37:47.403Z,62.20
2018-03-25T03:38:48.478Z,62.10
2018-03-25T03:39:49.576Z,62.30
2018-03-25T03:40:50.711Z,62.20
2018-03-25T03:41:52.531Z,62.40
2018-03-25T03:42:53.595Z,62.20
2018-03-25T03:43:54.718Z,62.20
2018-03-25T03:44:56.556Z,62.20
2018-03-25T03:45:57.640Z,62.10
2018-03-25T03:46:58.727Z,62.00
2018-03-25T03:48:00.563Z,62.10
2018-03-25T03:49:01.671Z,62.00
2018-03-25T03:50:02.748Z,62.00
2018-03-25T03:51:04.594Z,62.00
2018-03-25T03:52:05.688Z,62.00
2018-03-25T03:53:06.777Z,61.90
2018-03-25T03:54:07.866Z,61.80
2018-03-25T03:55:08.967Z,62.00
2018-03-25T03:56:10.052Z,62.00
2018-03-25T03:57:11.145Z,62.00
2018-03-25T03:58:12.226Z,61.90
2018-03-25T03:59:14.058Z,61.80
2018-03-25T04:00:15.156Z,61.80
2018-03-25T04:01:16.245Z,61.80
2018-03-25T04:02:17.356Z,61.80
2018-03-25T04:03:18.440Z,61.80
2018-03-25T04:04:19.540Z,61.90
2018-03-25T04:05:20.657Z,61.90
2018-03-25T04:06:21.763Z,61.90
2018-03-25T04:07:23.329Z,62.00
2018-03-25T04:08:24.411Z,61.90
2018-03-25T04:09:25.497Z,62.00
2018-03-25T04:10:26.585Z,62.10
2018-03-25T04:11:28.423Z,62.20
2018-03-25T04:12:29.532Z,62.10
2018-03-25T04:13:31.373Z,62.00
2018-03-25T04:14:33.210Z,62.00
2018-03-25T04:15:34.283Z,62.00
2018-03-25T04:16:35.368Z,62.10
2018-03-25T04:17:36.501Z,62.10
2018-03-25T04:18:37.592Z,62.10
2018-03-25T04:19:38.693Z,62.00
2018-03-25T04:20:40.526Z,62.20
2018-03-25T04:21:41.619Z,62.10
2018-03-25T04:22:42.706Z,62.10
2018-03-25T04:23:44.542Z,61.90
2018-03-25T04:24:45.637Z,61.80
2018-03-25T04:25:46.724Z,61.90
2018-03-25T04:26:48.569Z,62.00
2018-03-25T04:27:50.418Z,62.10
2018-03-25T04:28:52.260Z,62.10
2018-03-25T04:29:53.335Z,62.20
2018-03-25T04:30:55.156Z,63.00
2018-03-25T04:31:56.262Z,62.20
2018-03-25T04:32:57.371Z,62.30
2018-03-25T04:33:58.465Z,63.10
2018-03-25T04:34:59.547Z,62.20
2018-03-25T04:36:00.683Z,62.30
2018-03-25T04:37:01.746Z,62.10
2018-03-25T04:38:02.844Z,62.30
2018-03-25T04:39:03.935Z,62.50
2018-03-25T04:40:05.013Z,62.30
2018-03-25T04:41:06.091Z,62.70
2018-03-25T04:42:07.911Z,62.60
2018-03-25T04:43:09.035Z,62.60
2018-03-25T04:44:10.141Z,62.60
2018-03-25T04:45:11.236Z,62.40
2018-03-25T04:46:13.065Z,62.50
2018-03-25T04:47:14.185Z,62.50
2018-03-25T04:48:15.296Z,62.30
2018-03-25T04:49:16.408Z,62.30
2018-03-25T04:50:17.503Z,62.30
2018-03-25T04:51:18.596Z,62.30
2018-03-25T04:52:19.683Z,62.30
2018-03-25T04:53:20.780Z,62.60
2018-03-25T04:54:22.622Z,62.50
2018-03-25T04:55:23.723Z,62.50
2018-03-25T04:56:24.883Z,62.30
2018-03-25T04:57:25.980Z,62.20
2018-03-25T04:58:27.109Z,62.40
2018-03-25T04:59:28.220Z,62.30
2018-03-25T05:00:30.092Z,62.30
2018-03-25T05:01:31.176Z,62.20
2018-03-25T05:02:32.270Z,62.40
2018-03-25T05:03:33.372Z,62.30
2018-03-25T05:04:34.464Z,62.30
2018-03-25T05:05:35.592Z,62.30
2018-03-25T05:06:36.674Z,62.40
2018-03-25T05:07:37.828Z,62.40
2018-03-25T05:08:38.909Z,62.40
2018-03-25T05:09:39.978Z,62.50
2018-03-25T05:10:41.095Z,62.50
2018-03-25T05:11:42.925Z,62.50
2018-03-25T05:12:44.031Z,62.50
2018-03-25T05:13:45.175Z,62.50
2018-03-25T05:14:46.260Z,62.50
2018-03-25T05:15:47.345Z,62.50
2018-03-25T05:16:48.505Z,62.50
2018-03-25T05:17:49.651Z,62.50
2018-03-25T05:18:51.475Z,62.50
2018-03-25T05:19:52.543Z,62.50
2018-03-25T05:20:53.624Z,62.50
2018-03-25T05:21:54.706Z,62.70
2018-03-25T05:22:55.806Z,62.70
2018-03-25T05:23:56.915Z,62.70
2018-03-25T05:24:57.988Z,62.70
2018-03-25T05:25:59.833Z,62.70
2018-03-25T05:27:00.923Z,62.60
2018-03-25T05:28:02.080Z,62.50
2018-03-25T05:29:03.130Z,62.50
2018-03-25T05:30:04.237Z,62.40
2018-03-25T05:31:05.341Z,62.40
2018-03-25T05:32:06.415Z,62.50
2018-03-25T05:33:07.508Z,62.50
2018-03-25T05:34:08.630Z,62.50
2018-03-25T05:35:10.430Z,62.70
2018-03-25T05:36:11.520Z,62.70
2018-03-25T05:37:12.599Z,62.70
2018-03-25T05:38:13.684Z,62.80
2018-03-25T05:39:14.772Z,62.80
2018-03-25T05:40:16.616Z,62.70
2018-03-25T05:41:17.738Z,62.70
2018-03-25T05:42:18.831Z,62.80
2018-03-25T05:43:19.937Z,62.90
2018-03-25T05:44:21.035Z,62.90
2018-03-25T05:45:22.143Z,62.90
2018-03-25T05:46:23.224Z,62.90
2018-03-25T05:47:24.337Z,62.70
2018-03-25T05:48:25.455Z,62.60
2018-03-25T05:49:26.507Z,62.50
2018-03-25T05:50:27.596Z,62.50
2018-03-25T05:51:28.684Z,62.50
2018-03-25T05:52:30.512Z,63.30
2018-03-25T05:53:31.621Z,63.30
2018-03-25T05:54:32.722Z,63.40
2018-03-25T05:55:33.813Z,63.00
2018-03-25T05:56:34.916Z,62.90
2018-03-25T05:57:35.994Z,63.50
2018-03-25T05:58:37.152Z,64.00
2018-03-25T05:59:38.203Z,63.20
2018-03-25T06:00:40.040Z,63.50
2018-03-25T06:01:41.128Z,63.50
2018-03-25T06:02:42.234Z,63.20
2018-03-25T06:03:44.073Z,64.50
2018-03-25T06:04:45.172Z,64.70
2018-03-25T06:05:46.268Z,63.40
2018-03-25T06:06:47.392Z,64.90
2018-03-25T06:07:48.480Z,63.80
2018-03-25T06:08:49.596Z,63.80
2018-03-25T06:09:50.693Z,65.40
2018-03-25T06:10:51.775Z,64.50
2018-03-25T06:11:52.868Z,64.80
2018-03-25T06:12:53.962Z,62.90
2018-03-25T06:13:55.077Z,63.70
2018-03-25T06:14:56.163Z,62.90
2018-03-25T06:15:57.332Z,63.10
2018-03-25T06:16:58.320Z,62.90
2018-03-25T06:17:59.399Z,62.80
2018-03-25T06:19:00.490Z,62.80
2018-03-25T06:20:01.584Z,62.60
2018-03-25T06:21:02.681Z,62.50
2018-03-25T06:22:04.507Z,62.70
2018-03-25T06:23:05.647Z,62.70
2018-03-25T06:24:07.516Z,62.90
2018-03-25T06:25:08.656Z,62.90
2018-03-25T06:26:09.736Z,63.00
2018-03-25T06:27:10.828Z,63.20
2018-03-25T06:28:12.648Z,63.40
2018-03-25T06:29:14.496Z,63.10
2018-03-25T06:30:15.581Z,63.10
2018-03-25T06:31:16.664Z,63.10
2018-03-25T06:32:17.764Z,62.90
2018-03-25T06:33:18.851Z,63.00
2018-03-25T06:34:20.692Z,63.10
2018-03-25T06:35:21.761Z,63.90
2018-03-25T06:36:22.856Z,63.30
2018-03-25T06:37:24.674Z,63.30
2018-03-25T06:38:25.755Z,63.30
2018-03-25T06:39:26.856Z,63.40
2018-03-25T06:40:27.956Z,63.40
2018-03-25T06:41:29.043Z,64.40
2018-03-25T06:42:30.124Z,63.70
2018-03-25T06:43:31.208Z,63.60
2018-03-25T06:44:32.327Z,63.60
2018-03-25T06:45:34.156Z,63.60
2018-03-25T06:46:35.251Z,63.60
2018-03-25T06:47:37.124Z,63.60
2018-03-25T06:48:38.307Z,63.80
2018-03-25T06:49:39.336Z,63.70
2018-03-25T06:50:40.420Z,63.60
2018-03-25T06:51:43.377Z,63.30
2018-03-25T06:52:44.739Z,63.00
2018-03-25T06:53:45.811Z,63.00
2018-03-25T06:54:47.647Z,63.20
2018-03-25T06:55:48.755Z,63.10
2018-03-25T06:56:49.856Z,63.00
2018-03-25T06:57:50.944Z,63.10
2018-03-25T06:58:52.020Z,63.30
2018-03-25T06:59:53.109Z,63.60
2018-03-25T07:00:54.197Z,63.40
2018-03-25T07:01:55.291Z,63.70
2018-03-25T07:02:57.116Z,63.80
2018-03-25T07:03:58.215Z,63.80
2018-03-25T07:04:59.304Z,63.60
2018-03-25T07:06:00.392Z,63.50
2018-03-25T07:07:01.496Z,63.70
2018-03-25T07:08:02.594Z,63.30
2018-03-25T07:09:04.432Z,63.20
2018-03-25T07:10:05.512Z,63.10
2018-03-25T07:11:06.601Z,62.90
2018-03-25T07:12:07.692Z,62.90
2018-03-25T07:13:08.800Z,62.50
2018-03-25T07:14:09.891Z,62.80
2018-03-25T07:15:11.004Z,62.60
2018-03-25T07:16:12.083Z,62.30
2018-03-25T07:17:13.909Z,62.40
2018-03-25T07:18:15.052Z,62.30
2018-03-25T07:19:16.136Z,62.10
2018-03-25T07:20:17.244Z,62.30
2018-03-25T07:21:18.325Z,62.30
2018-03-25T07:22:19.401Z,62.50
2018-03-25T07:23:21.214Z,62.60
2018-03-25T07:24:22.303Z,62.60
2018-03-25T07:25:23.412Z,62.80
2018-03-25T07:26:25.224Z,62.60
2018-03-25T07:27:26.315Z,62.50
2018-03-25T07:28:27.387Z,62.50
2018-03-25T07:29:28.472Z,62.70
2018-03-25T07:30:29.568Z,62.40
2018-03-25T07:31:30.654Z,62.30
2018-03-25T07:32:31.765Z,62.30
2018-03-25T07:33:32.860Z,62.20
2018-03-25T07:34:33.960Z,62.20
2018-03-25T07:35:35.094Z,62.30
2018-03-25T07:36:36.192Z,62.10
2018-03-25T07:37:37.457Z,62.20
2018-03-25T07:38:38.548Z,62.10
2018-03-25T07:39:39.648Z,62.10
2018-03-25T07:40:40.740Z,62.00
2018-03-25T07:41:41.828Z,62.20
2018-03-25T07:42:42.910Z,62.20
2018-03-25T07:43:43.991Z,62.20
2018-03-25T07:44:45.075Z,62.20
2018-03-25T07:45:46.192Z,62.00
2018-03-25T07:46:47.264Z,61.90
2018-03-25T07:47:48.447Z,61.90
2018-03-25T07:48:49.543Z,61.90
2018-03-25T07:49:50.634Z,61.40
2018-03-25T07:50:51.719Z,61.20
2018-03-25T07:51:52.807Z,61.00
2018-03-25T07:52:53.921Z,60.70
2018-03-25T07:53:55.005Z,60.90
2018-03-25T07:54:56.101Z,60.60
2018-03-25T07:55:57.218Z,60.80
2018-03-25T07:56:58.307Z,60.80
2018-03-25T07:57:59.376Z,60.80
2018-03-25T07:59:01.199Z,60.30
2018-03-25T08:00:02.285Z,60.30
2018-03-25T08:01:03.414Z,60.40
2018-03-25T08:02:04.573Z,60.40
2018-03-25T08:03:05.693Z,60.40
2018-03-25T08:04:06.780Z,60.40
2018-03-25T08:05:08.609Z,60.50
2018-03-25T08:06:09.774Z,60.40
2018-03-25T08:07:10.892Z,60.40
2018-03-25T08:08:12.712Z,60.50
2018-03-25T08:09:13.813Z,60.50
2018-03-25T08:10:14.924Z,60.30
2018-03-25T08:11:16.048Z,60.60
2018-03-25T08:12:17.139Z,60.50
2018-03-25T08:13:18.210Z,60.20
2018-03-25T08:14:20.051Z,60.30
2018-03-25T08:15:21.140Z,60.20
2018-03-25T08:16:22.216Z,60.00
2018-03-25T08:17:23.319Z,60.20
2018-03-25T08:18:24.440Z,60.30
2018-03-25T08:19:25.567Z,60.10
2018-03-25T08:20:26.659Z,59.30
2018-03-25T08:21:27.761Z,58.90
2018-03-25T08:22:28.843Z,59.00
2018-03-25T08:23:29.915Z,58.90
2018-03-25T08:24:30.990Z,59.00
2018-03-25T08:25:32.802Z,59.40
2018-03-25T08:26:33.895Z,59.40
2018-03-25T08:27:35.016Z,59.50
2018-03-25T08:28:36.219Z,59.40
2018-03-25T08:29:37.499Z,60.10
2018-03-25T08:30:38.920Z,59.20
2018-03-25T08:31:40.146Z,58.90
2018-03-25T08:32:41.352Z,59.00
2018-03-25T08:33:42.436Z,58.80
2018-03-25T08:34:43.549Z,58.50
2018-03-25T08:35:45.372Z,58.20
2018-03-25T08:36:46.451Z,58.20
2018-03-25T08:37:47.563Z,58.10
2018-03-25T08:38:49.502Z,59.00
2018-03-25T08:39:50.608Z,59.00
2018-03-25T08:40:51.702Z,58.90
2018-03-25T08:41:52.788Z,59.00
2018-03-25T08:42:53.901Z,58.40
2018-03-25T08:43:54.977Z,58.50
2018-03-25T08:44:56.803Z,58.10
2018-03-25T08:45:57.898Z,58.10
2018-03-25T08:46:58.996Z,58.10
2018-03-25T08:48:00.809Z,57.80
2018-03-25T08:49:01.917Z,57.80
2018-03-25T08:50:03.010Z,57.50
2018-03-25T08:51:04.855Z,57.70
2018-03-25T08:52:05.963Z,57.60
2018-03-25T08:53:07.029Z,57.70
2018-03-25T08:54:08.848Z,56.90
2018-03-25T08:55:09.956Z,56.90
2018-03-25T08:56:11.048Z,57.30
2018-03-25T08:57:12.860Z,56.70
2018-03-25T08:58:13.974Z,56.70
2018-03-25T08:59:15.070Z,56.70
2018-03-25T09:00:16.164Z,56.30
2018-03-25T09:01:17.269Z,56.40
2018-03-25T09:02:18.360Z,56.10
2018-03-25T09:03:19.464Z,55.60
2018-03-25T09:04:20.568Z,55.70
2018-03-25T09:05:22.397Z,56.20
2018-03-25T09:06:23.490Z,57.00
2018-03-25T09:07:24.597Z,55.80
2018-03-25T09:08:25.704Z,56.00
2018-03-25T09:09:26.779Z,56.10
2018-03-25T09:10:27.896Z,55.60
2018-03-25T09:11:28.992Z,55.90
2018-03-25T09:12:30.068Z,55.70
2018-03-25T09:13:31.194Z,56.10
2018-03-25T09:14:32.271Z,56.00
2018-03-25T09:15:33.360Z,56.10
2018-03-25T09:16:34.438Z,55.90
2018-03-25T09:17:35.528Z,55.40
2018-03-25T09:18:36.596Z,55.30
2018-03-25T09:19:38.435Z,53.90
2018-03-25T09:20:39.509Z,53.80
2018-03-25T09:21:40.595Z,54.00
2018-03-25T09:22:42.420Z,54.20
2018-03-25T09:23:43.501Z,54.10
2018-03-25T09:24:44.594Z,53.50
2018-03-25T09:25:45.663Z,53.40
2018-03-25T09:26:47.476Z,53.40
2018-03-25T09:27:48.563Z,53.40
2018-03-25T09:28:49.653Z,53.50
2018-03-25T09:29:50.743Z,53.40
2018-03-25T09:30:51.828Z,53.50
2018-03-25T09:31:52.914Z,53.30
2018-03-25T09:33:00.903Z,53.10
2018-03-25T09:34:01.992Z,52.80
2018-03-25T09:35:03.090Z,52.90
2018-03-25T09:36:04.167Z,52.70
2018-03-25T09:37:05.255Z,53.00
2018-03-25T09:38:06.378Z,52.90
2018-03-25T09:39:07.452Z,52.80
2018-03-25T09:40:08.543Z,52.50
2018-03-25T09:41:09.639Z,52.40
2018-03-25T09:42:10.724Z,52.50
2018-03-25T09:43:11.834Z,52.40
2018-03-25T09:44:12.916Z,52.50
2018-03-25T09:45:14.745Z,52.60
2018-03-25T09:46:15.825Z,52.60
2018-03-25T09:47:16.913Z,52.90
2018-03-25T09:48:18.007Z,52.10
2018-03-25T09:49:19.093Z,52.00
2018-03-25T09:50:20.177Z,52.20
2018-03-25T09:51:21.295Z,52.20
2018-03-25T09:52:22.385Z,52.40
2018-03-25T09:53:23.474Z,52.60
2018-03-25T09:54:24.577Z,52.60
2018-03-25T09:55:25.653Z,52.50
2018-03-25T09:56:26.739Z,52.40
2018-03-25T09:57:27.823Z,52.30
2018-03-25T09:58:28.914Z,52.30
2018-03-25T09:59:29.983Z,52.40
2018-03-25T10:00:35.912Z,52.10
2018-03-25T10:01:40.916Z,51.80
2018-03-25T10:02:42.006Z,51.60
2018-03-25T10:03:43.835Z,51.90
2018-03-25T10:04:46.418Z,51.70
2018-03-25T10:05:47.480Z,51.60
2018-03-25T10:06:48.568Z,51.70
2018-03-25T10:07:49.644Z,52.40
2018-03-25T10:08:50.744Z,51.70
2018-03-25T10:09:51.824Z,51.70
2018-03-25T10:10:52.900Z,51.70
2018-03-25T10:11:53.980Z,51.50
2018-03-25T10:12:55.060Z,51.50
2018-03-25T10:13:56.171Z,50.40
2018-03-25T10:15:04.055Z,50.90
2018-03-25T10:16:05.429Z,50.80
2018-03-25T10:17:06.735Z,50.60
2018-03-25T10:18:07.848Z,50.50
2018-03-25T10:19:08.940Z,50.70
2018-03-25T10:20:10.049Z,50.60
2018-03-25T10:21:11.140Z,50.60
2018-03-25T10:22:12.223Z,50.60
2018-03-25T10:23:13.313Z,50.60
2018-03-25T10:24:14.410Z,50.60
2018-03-25T10:25:15.511Z,50.70
2018-03-25T10:26:16.591Z,50.40
2018-03-25T10:27:17.749Z,50.40
2018-03-25T10:28:18.852Z,49.80
2018-03-25T10:29:20.676Z,49.40
2018-03-25T10:30:21.761Z,49.30
2018-03-25T10:31:22.848Z,50.10
2018-03-25T10:32:24.008Z,50.00
2018-03-25T10:33:25.096Z,50.20
2018-03-25T10:34:26.186Z,50.40
2018-03-25T10:35:27.281Z,49.60
2018-03-25T10:36:28.379Z,49.80
2018-03-25T10:37:29.456Z,50.10
2018-03-25T10:38:30.548Z,50.00
2018-03-25T10:39:31.636Z,50.40
2018-03-25T10:40:33.453Z,50.70
2018-03-25T10:41:34.532Z,50.00
2018-03-25T10:42:35.600Z,50.10
2018-03-25T10:43:36.681Z,50.00
2018-03-25T10:44:37.780Z,50.90
2018-03-25T10:45:38.868Z,50.20
2018-03-25T10:46:39.942Z,50.00
2018-03-25T10:47:41.020Z,49.80
2018-03-25T10:48:42.100Z,49.90
2018-03-25T10:49:43.172Z,49.70
2018-03-25T10:50:44.280Z,49.50
2018-03-25T10:51:45.360Z,49.80
2018-03-25T10:52:46.477Z,49.90
2018-03-25T10:53:47.627Z,49.80
2018-03-25T10:54:48.725Z,50.00
2018-03-25T10:55:56.718Z,49.60
2018-03-25T10:56:57.808Z,49.10
2018-03-25T10:57:58.973Z,49.00
2018-03-25T10:59:00.060Z,49.00
2018-03-25T11:00:01.173Z,49.30
2018-03-25T11:01:02.268Z,49.50
2018-03-25T11:02:03.356Z,48.60
2018-03-25T11:03:04.486Z,48.50
2018-03-25T11:04:05.618Z,48.40
2018-03-25T11:05:06.707Z,48.50
2018-03-25T11:06:07.820Z,48.80
2018-03-25T11:07:08.924Z,48.20
2018-03-25T11:08:10.052Z,47.90
2018-03-25T11:09:11.157Z,48.20
2018-03-25T11:10:12.245Z,48.40
2018-03-25T11:11:13.322Z,48.10
2018-03-25T11:12:14.425Z,47.50
2018-03-25T11:13:15.510Z,47.80
2018-03-25T11:14:16.596Z,47.60
2018-03-25T11:15:17.685Z,47.70
2018-03-25T11:16:18.781Z,47.40
2018-03-25T11:17:19.863Z,47.60
2018-03-25T11:18:20.942Z,47.40
2018-03-25T11:19:23.248Z,47.40
2018-03-25T11:20:24.332Z,47.50
2018-03-25T11:21:26.163Z,47.50
2018-03-25T11:22:27.236Z,47.50
2018-03-25T11:23:28.332Z,47.50
2018-03-25T11:24:30.149Z,47.80
2018-03-25T11:25:31.260Z,47.60
2018-03-25T11:26:32.332Z,47.60
2018-03-25T11:27:33.424Z,47.60
2018-03-25T11:28:34.564Z,47.70
2018-03-25T11:29:35.632Z,47.70
2018-03-25T11:30:37.383Z,47.70
2018-03-25T11:31:38.467Z,47.70
2018-03-25T11:32:39.545Z,47.70
2018-03-25T11:33:40.621Z,47.60
2018-03-25T11:34:41.723Z,47.30
2018-03-25T11:35:44.444Z,47.80
2018-03-25T11:36:45.504Z,47.20
2018-03-25T11:37:46.595Z,47.40
2018-03-25T11:38:47.673Z,47.60
2018-03-25T11:39:48.747Z,47.40
2018-03-25T11:40:49.843Z,46.80
2018-03-25T11:41:50.922Z,47.00
2018-03-25T11:42:52.007Z,46.70
2018-03-25T11:43:53.087Z,47.10
2018-03-25T11:44:54.152Z,47.20
2018-03-25T11:45:55.234Z,46.80
2018-03-25T11:46:56.312Z,46.50
2018-03-25T11:47:57.387Z,46.10
2018-03-25T11:48:59.208Z,46.20
2018-03-25T11:50:01.309Z,46.10
2018-03-25T11:51:02.427Z,46.00
2018-03-25T11:52:04.260Z,45.20
2018-03-25T11:53:05.339Z,45.20
2018-03-25T11:54:06.426Z,45.80
2018-03-25T11:55:07.508Z,45.80
2018-03-25T11:56:08.596Z,45.70
2018-03-25T11:57:09.692Z,45.40
2018-03-25T11:58:10.875Z,45.30
2018-03-25T11:59:11.982Z,45.00
2018-03-25T12:00:13.070Z,44.70
2018-03-25T12:01:14.140Z,44.10
2018-03-25T12:02:15.236Z,44.00
2018-03-25T12:03:16.334Z,44.00
2018-03-25T12:04:17.412Z,43.70
2018-03-25T12:05:18.510Z,44.10
2018-03-25T12:06:19.609Z,44.00
2018-03-25T12:07:20.685Z,44.10
2018-03-25T12:08:21.800Z,43.50
2018-03-25T12:09:22.932Z,43.30
2018-03-25T12:10:24.003Z,43.10
2018-03-25T12:11:25.104Z,43.10
2018-03-25T12:12:26.911Z,42.30
2018-03-25T12:13:27.999Z,42.30
2018-03-25T12:14:29.071Z,42.40
2018-03-25T12:15:30.149Z,42.50
2018-03-25T12:16:31.976Z,41.60
2018-03-25T12:17:33.068Z,41.60
2018-03-25T12:18:34.153Z,42.40
2018-03-25T12:19:35.988Z,42.50
2018-03-25T12:20:37.063Z,42.50
2018-03-25T12:21:38.167Z,42.70
2018-03-25T12:22:40.012Z,43.20
2018-03-25T12:23:41.088Z,43.20
2018-03-25T12:24:42.165Z,43.00
2018-03-25T12:25:43.265Z,42.40
2018-03-25T12:26:44.364Z,42.50
2018-03-25T12:27:45.452Z,42.80
2018-03-25T12:28:46.540Z,43.30
2018-03-25T12:29:47.611Z,43.30
2018-03-25T12:30:48.707Z,43.40
2018-03-25T12:31:49.803Z,43.40
2018-03-25T12:32:50.871Z,43.30
2018-03-25T12:33:52.679Z,43.50
2018-03-25T12:34:53.748Z,43.30
2018-03-25T12:35:54.838Z,43.50
2018-03-25T12:36:55.954Z,42.20
2018-03-25T12:37:57.033Z,42.90
2018-03-25T12:38:58.136Z,42.80
2018-03-25T12:39:59.225Z,42.70
2018-03-25T12:41:00.296Z,42.70
2018-03-25T12:42:01.376Z,43.00
2018-03-25T12:43:03.219Z,43.20
2018-03-25T12:44:04.339Z,43.10
2018-03-25T12:45:06.156Z,43.40
2018-03-25T12:46:07.943Z,43.40
2018-03-25T12:47:09.069Z,43.70
2018-03-25T12:48:10.905Z,43.70
2018-03-25T12:49:11.996Z,43.70
2018-03-25T12:50:13.096Z,43.70
2018-03-25T12:51:14.200Z,43.00
2018-03-25T12:52:15.271Z,43.80
2018-03-25T12:53:16.344Z,43.70
2018-03-25T12:54:18.157Z,43.80
2018-03-25T12:55:19.274Z,43.60
2018-03-25T12:56:20.564Z,43.60
2018-03-25T12:57:21.704Z,43.90
2018-03-25T12:58:22.769Z,43.40
2018-03-25T12:59:24.581Z,43.10
2018-03-25T13:00:25.664Z,43.10
2018-03-25T13:01:26.756Z,42.80
2018-03-25T13:02:27.845Z,42.80
2018-03-25T13:03:28.935Z,42.10
2018-03-25T13:04:30.021Z,42.30
2018-03-25T13:05:31.091Z,42.50
2018-03-25T13:06:32.209Z,42.40
2018-03-25T13:07:33.332Z,42.30
2018-03-25T13:08:34.397Z,41.50
2018-03-25T13:09:35.542Z,41.40